createdAt,value
2022-09-24T00:00:00.538Z,61.80
2022-09-24T00:02:30.616Z,61.51
2022-09-24T00:04:59.151Z,61.74
2022-09-24T00:07:28.109Z,62.10
2022-09-24T00:09:56.395Z,62.28
2022-09-24T00:12:25.506Z,62.15
2022-09-24T00:14:53.831Z,61.84
2022-09-24T00:17:22.850Z,62.28
2022-09-24T00:19:53.062Z,62.17
2022-09-24T00:22:21.900Z,62.14
2022-09-24T00:25:07.832Z,62.44
2022-09-24T00:27:36.841Z,62.24
2022-09-24T00:30:05.779Z,62.60
2022-09-24T00:32:35.077Z,62.61
2022-09-24T00:35:05.302Z,62.65
2022-09-24T00:37:34.534Z,62.44
2022-09-24T00:40:03.359Z,62.40
2022-09-24T00:42:33.178Z,62.46
2022-09-24T00:45:05.132Z,62.91
2022-09-24T00:47:36.987Z,62.80
2022-09-24T00:50:15.119Z,62.44
2022-09-24T00:52:48.528Z,62.79
2022-09-24T00:55:20.188Z,62.53
2022-09-24T00:57:52.125Z,62.80
2022-09-24T01:00:22.386Z,62.83
2022-09-24T01:02:57.840Z,62.68
2022-09-24T01:05:27.662Z,62.59
2022-09-24T01:07:56.745Z,62.65
2022-09-24T01:10:51.237Z,62.82
2022-09-24T01:13:42.893Z,63.40
2022-09-24T01:16:19.578Z,63.46
2022-09-24T01:18:55.696Z,63.16
2022-09-24T01:21:37.893Z,63.34
2022-09-24T01:24:30.788Z,63.44
2022-09-24T01:27:05.053Z,63.06
2022-09-24T01:29:43.472Z,63.45
2022-09-24T01:32:20.635Z,63.54
2022-09-24T01:34:51.784Z,63.67
2022-09-24T01:37:24.462Z,63.59
2022-09-24T01:39:55.493Z,63.62
2022-09-24T01:42:27.252Z,63.65
2022-09-24T01:44:58.907Z,63.86
2022-09-24T01:47:34.883Z,63.80
2022-09-24T01:50:04.766Z,64.28
2022-09-24T01:52:45.371Z,64.35
2022-09-24T01:55:19.077Z,64.30
2022-09-24T01:57:51.261Z,64.26
2022-09-24T02:00:23.176Z,64.41
2022-09-24T02:02:57.849Z,64.62
2022-09-24T02:05:32.817Z,64.59
2022-09-24T02:08:07.143Z,64.36
2022-09-24T02:10:42.406Z,64.86
2022-09-24T02:13:15.053Z,64.81
2022-09-24T02:15:50.193Z,64.89
2022-09-24T02:18:25.390Z,64.75
2022-09-24T02:20:54.311Z,64.84
2022-09-24T02:23:27.362Z,64.78
2022-09-24T02:26:02.436Z,64.89
2022-09-24T02:28:32.923Z,64.98
2022-09-24T02:31:06.844Z,65.02
2022-09-24T02:33:55.163Z,65.08
2022-09-24T02:36:25.511Z,65.09
2022-09-24T02:38:54.435Z,65.22
2022-09-24T02:41:25.707Z,65.21
2022-09-24T02:43:54.059Z,65.14
2022-09-24T02:46:24.691Z,65.05
2022-09-24T02:48:53.051Z,65.27
2022-09-24T02:51:22.362Z,65.70
2022-09-24T02:53:51.145Z,65.66
2022-09-24T02:56:19.487Z,65.86
2022-09-24T02:58:48.150Z,65.96
2022-09-24T03:01:17.252Z,65.82
2022-09-24T03:03:48.176Z,66.02
2022-09-24T03:06:16.955Z,66.10
2022-09-24T03:08:46.856Z,66.29
2022-09-24T03:11:18.673Z,66.19
2022-09-24T03:13:47.357Z,66.07
2022-09-24T03:16:17.243Z,65.85
2022-09-24T03:18:49.215Z,65.94
2022-09-24T03:21:20.568Z,65.52
2022-09-24T03:23:49.356Z,65.96
2022-09-24T03:26:18.552Z,65.80
2022-09-24T03:28:47.621Z,65.88
2022-09-24T03:31:15.789Z,66.02
2022-09-24T03:33:46.304Z,66.36
2022-09-24T03:36:19.711Z,66.17
2022-09-24T03:38:49.843Z,66.62
2022-09-24T03:41:19.113Z,66.77
2022-09-24T03:43:47.676Z,66.51
2022-09-24T03:46:17.633Z,66.58
2022-09-24T03:48:47.293Z,66.56
2022-09-24T03:51:20.407Z,66.54
2022-09-24T03:53:49.245Z,66.63
2022-09-24T03:56:18.197Z,66.87
2022-09-24T03:58:48.052Z,66.58
2022-09-24T04:01:22.242Z,66.67
2022-09-24T04:03:51.113Z,66.63
2022-09-24T04:06:25.752Z,66.71
2022-09-24T04:08:54.928Z,66.59
2022-09-24T04:11:23.975Z,66.54
2022-09-24T04:13:53.825Z,66.11
2022-09-24T04:16:22.337Z,66.45
2022-09-24T04:18:51.222Z,66.72
2022-09-24T04:21:21.405Z,66.60
2022-09-24T04:23:49.690Z,66.94
2022-09-24T04:26:18.143Z,66.78
2022-09-24T04:28:46.785Z,66.79
2022-09-24T04:31:15.186Z,66.67
2022-09-24T04:33:43.481Z,66.96
2022-09-24T04:36:12.114Z,66.81
2022-09-24T04:38:41.800Z,66.93
2022-09-24T04:41:10.536Z,67.11
2022-09-24T04:43:39.004Z,67.17
2022-09-24T04:46:09.296Z,67.25
2022-09-24T04:48:38.199Z,67.23
2022-09-24T04:51:06.997Z,67.31
2022-09-24T04:53:37.721Z,67.27
2022-09-24T04:56:11.617Z,67.28
2022-09-24T04:58:40.031Z,67.12
2022-09-24T05:01:09.313Z,67.15
2022-09-24T05:03:37.660Z,67.42
2022-09-24T05:06:06.698Z,67.33
2022-09-24T05:08:35.024Z,67.43
2022-09-24T05:11:04.627Z,67.29
2022-09-24T05:13:35.109Z,67.59
2022-09-24T05:16:04.167Z,67.77
2022-09-24T05:18:32.581Z,67.65
2022-09-24T05:21:00.897Z,67.77
2022-09-24T05:23:30.014Z,67.65
2022-09-24T05:26:16.123Z,68.02
2022-09-24T05:28:46.091Z,68.04
2022-09-24T05:31:14.943Z,68.06
2022-09-24T05:33:43.747Z,67.98
2022-09-24T05:36:12.061Z,68.09
2022-09-24T05:38:41.799Z,68.07
2022-09-24T05:41:10.966Z,67.88
2022-09-24T05:43:39.251Z,68.23
2022-09-24T05:46:09.399Z,68.05
2022-09-24T05:48:38.159Z,68.31
2022-09-24T05:51:06.970Z,68.40
2022-09-24T05:53:36.580Z,68.38
2022-09-24T05:56:05.399Z,68.35
2022-09-24T05:58:33.888Z,68.30
2022-09-24T06:01:03.112Z,68.27
2022-09-24T06:03:32.842Z,68.37
2022-09-24T06:06:02.546Z,68.50
2022-09-24T06:08:32.534Z,68.48
2022-09-24T06:11:02.392Z,68.90
2022-09-24T06:13:31.985Z,68.81
2022-09-24T06:16:02.546Z,69.18
2022-09-24T06:18:35.465Z,69.01
2022-09-24T06:21:05.363Z,69.07
2022-09-24T06:23:33.707Z,69.09
2022-09-24T06:26:03.198Z,69.47
2022-09-24T06:28:31.640Z,69.35
2022-09-24T06:31:01.307Z,69.81
2022-09-24T06:33:33.039Z,69.99
2022-09-24T06:36:02.687Z,70.11
2022-09-24T06:38:32.254Z,70.29
2022-09-24T06:41:01.991Z,70.63
2022-09-24T06:43:31.558Z,70.43
2022-09-24T06:46:01.087Z,71.13
2022-09-24T06:48:31.110Z,71.10
2022-09-24T06:51:01.273Z,71.36
2022-09-24T06:53:29.976Z,71.51
2022-09-24T06:56:00.508Z,71.41
2022-09-24T06:58:29.640Z,71.34
2022-09-24T07:01:00.830Z,71.46
2022-09-24T07:03:30.834Z,71.17
2022-09-24T07:06:04.659Z,71.37
2022-09-24T07:08:33.662Z,71.60
2022-09-24T07:11:02.623Z,71.06
2022-09-24T07:13:32.350Z,71.08
2022-09-24T07:16:01.510Z,71.36
2022-09-24T07:18:30.880Z,71.11
2022-09-24T07:20:59.204Z,70.90
2022-09-24T07:23:30.753Z,70.84
2022-09-24T07:25:59.136Z,70.90
2022-09-24T07:28:28.272Z,71.08
2022-09-24T07:31:00.729Z,70.73
2022-09-24T07:33:29.706Z,71.14
2022-09-24T07:35:58.561Z,71.08
2022-09-24T07:38:26.985Z,70.89
2022-09-24T07:40:59.957Z,70.81
2022-09-24T07:43:28.947Z,70.90
2022-09-24T07:45:58.164Z,70.59
2022-09-24T07:48:27.350Z,70.66
2022-09-24T07:50:56.272Z,70.83
2022-09-24T07:53:24.664Z,70.86
2022-09-24T07:55:54.065Z,70.76
2022-09-24T07:58:24.015Z,70.56
2022-09-24T08:00:52.746Z,70.57
2022-09-24T08:03:22.320Z,70.72
2022-09-24T08:05:51.476Z,70.24
2022-09-24T08:08:20.745Z,70.18
2022-09-24T08:10:50.119Z,70.15
2022-09-24T08:13:18.495Z,70.48
2022-09-24T08:15:48.652Z,70.31
2022-09-24T08:18:17.427Z,70.07
2022-09-24T08:20:46.484Z,70.32
2022-09-24T08:23:15.160Z,70.02
2022-09-24T08:25:46.002Z,69.90
2022-09-24T08:28:17.581Z,69.84
2022-09-24T08:30:48.651Z,69.52
2022-09-24T08:33:17.472Z,69.81
2022-09-24T08:35:46.387Z,69.85
2022-09-24T08:38:16.074Z,69.68
2022-09-24T08:40:47.764Z,69.49
2022-09-24T08:43:31.574Z,69.47
2022-09-24T08:46:27.064Z,69.74
2022-09-24T08:48:56.661Z,70.00
2022-09-24T08:51:30.184Z,69.77
2022-09-24T08:54:08.178Z,69.89
2022-09-24T08:56:41.023Z,69.77
2022-09-24T08:59:24.036Z,69.65
2022-09-24T09:02:06.723Z,69.57
2022-09-24T09:04:46.591Z,69.83
2022-09-24T09:07:21.706Z,69.92
2022-09-24T09:09:55.139Z,69.69
2022-09-24T09:12:30.224Z,69.68
2022-09-24T09:15:03.741Z,69.68
2022-09-24T09:17:42.563Z,69.91
2022-09-24T09:20:17.094Z,69.52
2022-09-24T09:22:49.856Z,69.69
2022-09-24T09:25:25.262Z,69.96
2022-09-24T09:28:01.734Z,69.65
2022-09-24T09:30:44.088Z,69.89
2022-09-24T09:33:29.843Z,69.65
2022-09-24T09:36:06.058Z,69.90
2022-09-24T09:38:41.191Z,69.68
2022-09-24T09:41:22.116Z,69.77
2022-09-24T09:43:50.962Z,69.58
2022-09-24T09:46:24.961Z,69.96
2022-09-24T09:49:00.274Z,70.09
2022-09-24T09:51:37.314Z,69.79
2022-09-24T09:54:06.748Z,69.70
2022-09-24T09:56:37.686Z,70.04
2022-09-24T09:59:09.800Z,69.89
2022-09-24T10:01:41.619Z,69.69
2022-09-24T10:04:30.192Z,69.88
2022-09-24T10:07:07.253Z,70.04
2022-09-24T10:09:37.371Z,69.78
2022-09-24T10:12:17.793Z,69.50
2022-09-24T10:14:58.826Z,69.75
2022-09-24T10:17:31.702Z,69.85
2022-09-24T10:20:05.084Z,69.81
2022-09-24T10:22:33.513Z,69.71
2022-09-24T10:25:03.078Z,69.55
2022-09-24T10:27:35.483Z,69.64
2022-09-24T10:30:30.181Z,69.79
2022-09-24T10:33:00.636Z,69.87
2022-09-24T10:35:36.148Z,69.74
2022-09-24T10:38:17.267Z,69.63
2022-09-24T10:40:47.948Z,70.02
2022-09-24T10:43:19.599Z,69.52
2022-09-24T10:46:09.751Z,69.39
2022-09-24T10:48:44.821Z,69.69
2022-09-24T10:51:29.658Z,69.83
2022-09-24T10:54:16.595Z,69.89
2022-09-24T10:56:51.954Z,69.68
2022-09-24T10:59:42.877Z,70.04
2022-09-24T11:02:29.554Z,70.26
2022-09-24T11:05:00.888Z,69.93
2022-09-24T11:07:52.692Z,70.17
2022-09-24T11:10:30.481Z,70.21
2022-09-24T11:13:21.915Z,70.34
2022-09-24T11:16:09.712Z,70.45
2022-09-24T11:18:49.958Z,70.67
2022-09-24T11:21:30.268Z,70.71
2022-09-24T11:24:29.163Z,70.65
2022-09-24T11:27:10.020Z,70.83
2022-09-24T11:29:52.848Z,70.83
2022-09-24T11:32:28.185Z,70.94
2022-09-24T11:35:18.340Z,70.95
2022-09-24T11:37:59.228Z,70.85
2022-09-24T11:41:00.546Z,71.05
2022-09-24T11:43:56.162Z,71.18
2022-09-24T11:46:40.879Z,71.24
2022-09-24T11:49:29.186Z,71.17
2022-09-24T11:52:04.884Z,71.06
2022-09-24T11:54:37.222Z,71.49
2022-09-24T11:57:12.983Z,71.26
2022-09-24T11:59:51.175Z,71.47
2022-09-24T12:02:25.798Z,71.40
2022-09-24T12:05:00.552Z,71.55
2022-09-24T12:07:37.511Z,71.75
2022-09-24T12:10:20.273Z,71.73
2022-09-24T12:12:52.490Z,71.73
2022-09-24T12:15:25.260Z,71.84
2022-09-24T12:17:58.680Z,71.77
2022-09-24T12:20:29.329Z,71.78
2022-09-24T12:23:08.708Z,71.75
2022-09-24T12:25:42.444Z,71.81
2022-09-24T12:28:13.998Z,71.78
2022-09-24T12:31:11.410Z,71.63
2022-09-24T12:33:46.376Z,71.48
2022-09-24T12:36:23.331Z,71.70
2022-09-24T12:38:56.731Z,71.59
2022-09-24T12:41:32.467Z,71.40
2022-09-24T12:44:07.907Z,71.33
2022-09-24T12:46:44.924Z,71.31
2022-09-24T12:49:24.766Z,71.41
2022-09-24T12:51:54.035Z,71.31
2022-09-24T12:54:26.719Z,71.09
2022-09-24T12:57:07.292Z,71.19
2022-09-24T12:59:47.172Z,71.29
2022-09-24T13:02:20.145Z,71.19
2022-09-24T13:04:54.409Z,71.16
2022-09-24T13:07:35.096Z,71.43
2022-09-24T13:10:23.763Z,71.22
2022-09-24T13:12:52.479Z,71.42
2022-09-24T13:15:29.061Z,71.24
2022-09-24T13:18:24.214Z,71.29
2022-09-24T13:21:02.619Z,71.30
2022-09-24T13:23:47.742Z,71.09
2022-09-24T13:26:34.199Z,71.17
2022-09-24T13:29:04.159Z,71.23
2022-09-24T13:31:45.238Z,71.16
2022-09-24T13:34:19.834Z,71.23
2022-09-24T13:36:56.078Z,71.19
2022-09-24T13:39:28.964Z,71.12
2022-09-24T13:42:05.195Z,71.21
2022-09-24T13:44:38.058Z,71.24
2022-09-24T13:47:15.615Z,71.17
2022-09-24T13:49:49.412Z,71.38
2022-09-24T13:52:28.290Z,71.32
2022-09-24T13:55:01.146Z,71.42
2022-09-24T13:57:30.976Z,71.41
2022-09-24T14:00:20.326Z,71.44
2022-09-24T14:03:03.641Z,71.59
2022-09-24T14:05:37.506Z,71.56
2022-09-24T14:08:09.839Z,71.41
2022-09-24T14:10:39.963Z,71.66
2022-09-24T14:13:17.948Z,71.45
2022-09-24T14:15:54.415Z,71.77
2022-09-24T14:18:25.397Z,71.85
2022-09-24T14:20:59.921Z,72.00
2022-09-24T14:23:33.289Z,71.99
2022-09-24T14:26:03.012Z,72.13
2022-09-24T14:28:32.937Z,72.23
2022-09-24T14:31:03.321Z,72.58
2022-09-24T14:33:34.618Z,72.60
2022-09-24T14:36:05.236Z,72.79
2022-09-24T14:38:37.008Z,72.80
2022-09-24T14:41:10.509Z,72.94
2022-09-24T14:43:46.580Z,72.84
2022-09-24T14:46:18.818Z,72.93
2022-09-24T14:48:47.768Z,72.79
2022-09-24T14:51:28.847Z,72.78
2022-09-24T14:54:03.472Z,72.85
2022-09-24T14:56:33.955Z,72.79
2022-09-24T14:59:03.325Z,72.78
2022-09-24T15:01:33.794Z,72.64
2022-09-24T15:04:05.552Z,72.57
2022-09-24T15:06:38.552Z,72.34
2022-09-24T15:09:16.833Z,72.47
2022-09-24T15:11:45.822Z,72.30
2022-09-24T15:14:25.615Z,72.34
2022-09-24T15:16:55.142Z,72.54
2022-09-24T15:19:27.326Z,72.55
2022-09-24T15:22:00.099Z,72.79
2022-09-24T15:24:31.026Z,73.05
2022-09-24T15:27:04.476Z,73.03
2022-09-24T15:29:33.021Z,73.27
2022-09-24T15:32:02.568Z,73.54
2022-09-24T15:34:31.327Z,73.66
2022-09-24T15:37:01.114Z,73.64
2022-09-24T15:39:32.474Z,73.89
2022-09-24T15:42:00.791Z,73.73
2022-09-24T15:44:33.866Z,74.09
2022-09-24T15:47:02.971Z,73.99
2022-09-24T15:49:31.935Z,74.02
2022-09-24T15:52:06.616Z,74.06
2022-09-24T15:54:35.613Z,74.13
2022-09-24T15:57:04.333Z,74.10
2022-09-24T15:59:33.507Z,74.11
2022-09-24T16:02:04.846Z,74.16
2022-09-24T16:04:34.112Z,74.08
2022-09-24T16:07:04.443Z,74.20
2022-09-24T16:09:33.668Z,74.33
2022-09-24T16:12:02.806Z,74.20
2022-09-24T16:14:31.767Z,74.43
2022-09-24T16:17:00.167Z,74.38
2022-09-24T16:19:29.799Z,74.39
2022-09-24T16:21:59.814Z,74.59
2022-09-24T16:24:33.062Z,74.71
2022-09-24T16:27:02.682Z,74.77
2022-09-24T16:29:30.976Z,74.96
2022-09-24T16:32:01.131Z,75.14
2022-09-24T16:34:30.065Z,75.16
2022-09-24T16:36:58.819Z,75.25
2022-09-24T16:39:27.569Z,75.40
2022-09-24T16:41:57.610Z,75.32
2022-09-24T16:44:26.040Z,75.45
2022-09-24T16:46:55.319Z,75.44
2022-09-24T16:49:23.919Z,75.69
2022-09-24T16:51:52.972Z,75.32
2022-09-24T16:54:22.642Z,75.20
2022-09-24T16:56:52.865Z,75.40
2022-09-24T16:59:22.652Z,75.17
2022-09-24T17:01:54.012Z,75.20
2022-09-24T17:04:22.848Z,75.15
2022-09-24T17:06:51.203Z,75.35
2022-09-24T17:09:37.947Z,75.18
2022-09-24T17:12:07.091Z,75.35
2022-09-24T17:14:39.084Z,75.41
2022-09-24T17:17:08.199Z,75.26
2022-09-24T17:19:36.534Z,75.38
2022-09-24T17:22:05.648Z,75.20
2022-09-24T17:24:40.286Z,75.19
2022-09-24T17:27:09.009Z,75.22
2022-09-24T17:29:39.750Z,74.98
2022-09-24T17:32:08.108Z,75.17
2022-09-24T17:34:36.764Z,75.11
2022-09-24T17:37:06.099Z,74.92
2022-09-24T17:39:34.458Z,74.94
2022-09-24T17:42:03.350Z,74.80
2022-09-24T17:44:32.505Z,74.73
2022-09-24T17:47:02.613Z,74.56
2022-09-24T17:49:31.405Z,74.64
2022-09-24T17:52:01.766Z,74.53
2022-09-24T17:54:30.479Z,74.46
2022-09-24T17:56:58.884Z,74.50
2022-09-24T17:59:27.635Z,74.62
2022-09-24T18:01:55.984Z,74.91
2022-09-24T18:04:28.586Z,74.74
2022-09-24T18:06:57.379Z,74.87
2022-09-24T18:09:25.983Z,75.14
2022-09-24T18:11:54.346Z,75.23
2022-09-24T18:14:24.419Z,75.37
2022-09-24T18:16:53.810Z,75.36
2022-09-24T18:19:23.040Z,75.38
2022-09-24T18:21:53.624Z,75.41
2022-09-24T18:24:22.933Z,75.71
2022-09-24T18:26:52.720Z,75.59
2022-09-24T18:29:21.623Z,75.71
2022-09-24T18:31:51.359Z,75.69
2022-09-24T18:34:20.915Z,75.92
2022-09-24T18:36:49.222Z,75.99
2022-09-24T18:39:24.989Z,75.89
2022-09-24T18:41:54.543Z,75.97
2022-09-24T18:44:23.190Z,76.03
2022-09-24T18:46:51.873Z,75.83
2022-09-24T18:49:22.287Z,75.98
2022-09-24T18:51:52.023Z,75.93
2022-09-24T18:54:21.747Z,75.93
2022-09-24T18:56:50.055Z,75.94
2022-09-24T18:59:20.946Z,76.15
2022-09-24T19:01:51.146Z,76.11
2022-09-24T19:04:20.301Z,76.13
2022-09-24T19:06:50.984Z,76.15
2022-09-24T19:09:22.349Z,76.32
2022-09-24T19:11:51.366Z,76.20
2022-09-24T19:14:19.666Z,76.38
2022-09-24T19:16:48.932Z,76.41
2022-09-24T19:19:17.654Z,76.34
2022-09-24T19:21:46.555Z,76.35
2022-09-24T19:24:14.910Z,76.32
2022-09-24T19:26:45.176Z,76.39
2022-09-24T19:29:14.398Z,76.51
2022-09-24T19:31:45.852Z,76.30
2022-09-24T19:34:15.906Z,76.61
2022-09-24T19:36:45.314Z,76.87
2022-09-24T19:39:16.428Z,76.87
2022-09-24T19:41:46.366Z,77.03
2022-09-24T19:44:16.537Z,77.15
2022-09-24T19:46:47.160Z,77.15
2022-09-24T19:49:15.852Z,77.24
2022-09-24T19:51:44.595Z,77.36
2022-09-24T19:54:13.388Z,77.25
2022-09-24T19:56:43.647Z,77.40
2022-09-24T19:59:13.717Z,77.18
2022-09-24T20:01:43.170Z,76.93
2022-09-24T20:04:11.662Z,76.93
2022-09-24T20:06:41.101Z,76.98
2022-09-24T20:09:09.834Z,76.77
2022-09-24T20:11:38.208Z,76.75
2022-09-24T20:14:09.303Z,76.86
2022-09-24T20:16:40.676Z,76.62
2022-09-24T20:19:09.266Z,76.74
2022-09-24T20:21:38.714Z,76.83
2022-09-24T20:24:10.032Z,76.70
2022-09-24T20:26:55.835Z,76.59
2022-09-24T20:29:24.929Z,77.03
2022-09-24T20:31:56.675Z,76.93
2022-09-24T20:34:29.031Z,76.71
2022-09-24T20:36:58.465Z,76.90
2022-09-24T20:39:27.742Z,76.78
2022-09-24T20:41:56.337Z,76.85
2022-09-24T20:44:26.473Z,76.74
2022-09-24T20:46:57.138Z,76.79
2022-09-24T20:49:28.484Z,77.08
2022-09-24T20:51:57.785Z,76.98
2022-09-24T20:54:28.851Z,76.95
2022-09-24T20:56:57.661Z,76.86
2022-09-24T20:59:27.425Z,77.14
2022-09-24T21:01:57.485Z,77.13
2022-09-24T21:04:27.034Z,77.11
2022-09-24T21:06:55.648Z,76.83
2022-09-24T21:09:24.825Z,76.75
2022-09-24T21:11:54.339Z,76.74
2022-09-24T21:14:24.179Z,76.71
2022-09-24T21:16:55.030Z,76.96
2022-09-24T21:19:26.160Z,76.68
2022-09-24T21:21:54.503Z,76.89
2022-09-24T21:24:27.698Z,76.68
2022-09-24T21:27:00.189Z,76.61
2022-09-24T21:29:29.384Z,76.68
2022-09-24T21:31:58.218Z,76.85
2022-09-24T21:34:29.454Z,76.73
2022-09-24T21:36:57.823Z,76.96
2022-09-24T21:39:28.996Z,76.96
2022-09-24T21:41:59.872Z,76.76
2022-09-24T21:44:29.659Z,76.95
2022-09-24T21:46:58.574Z,76.83
2022-09-24T21:49:27.440Z,77.00
2022-09-24T21:51:58.034Z,76.94
2022-09-24T21:54:26.973Z,76.84
2022-09-24T21:56:55.605Z,76.77
2022-09-24T21:59:41.317Z,76.95
2022-09-24T22:02:12.527Z,77.05
2022-09-24T22:04:40.959Z,77.13
2022-09-24T22:07:12.738Z,77.22
2022-09-24T22:09:41.045Z,76.94
2022-09-24T22:12:10.852Z,77.10
2022-09-24T22:14:39.149Z,76.99
2022-09-24T22:17:08.395Z,77.21
2022-09-24T22:19:37.583Z,77.08
2022-09-24T22:22:06.771Z,77.15
2022-09-24T22:24:37.051Z,77.10
2022-09-24T22:27:05.759Z,76.95
2022-09-24T22:29:35.122Z,77.11
2022-09-24T22:32:04.274Z,76.96
2022-09-24T22:35:02.683Z,77.13
2022-09-24T22:37:32.162Z,77.27
2022-09-24T22:40:02.947Z,76.95
2022-09-24T22:42:31.240Z,76.95
2022-09-24T22:44:59.968Z,77.31
2022-09-24T22:47:28.279Z,77.21
2022-09-24T22:49:57.377Z,77.56
2022-09-24T22:52:25.689Z,77.55
2022-09-24T22:54:55.024Z,77.46
2022-09-24T22:57:25.295Z,77.59
2022-09-24T22:59:53.617Z,77.90
2022-09-24T23:02:22.437Z,77.68
2022-09-24T23:04:51.196Z,77.68
2022-09-24T23:07:20.047Z,77.83
2022-09-24T23:09:48.903Z,77.70
2022-09-24T23:12:17.782Z,77.88
2022-09-24T23:14:51.341Z,77.91
2022-09-24T23:17:20.316Z,77.75
2022-09-24T23:19:52.638Z,77.98
2022-09-24T23:22:23.234Z,77.95
2022-09-24T23:24:52.049Z,77.88
2022-09-24T23:27:21.442Z,77.70
2022-09-24T23:29:51.168Z,77.72
2022-09-24T23:32:21.047Z,77.72
2022-09-24T23:34:50.041Z,77.55
2022-09-24T23:37:18.364Z,77.39
2022-09-24T23:39:47.636Z,77.58
2022-09-24T23:42:16.030Z,77.70
2022-09-24T23:44:45.337Z,77.63
2022-09-24T23:47:15.455Z,77.64
2022-09-24T23:49:43.789Z,77.78
2022-09-24T23:52:13.018Z,77.88
2022-09-24T23:54:41.345Z,77.74
2022-09-24T23:57:11.800Z,77.85
2022-09-24T23:59:40.581Z,77.66
